Time;durP1;ratioP1;P1;durP2;ratioP2;P2;SDS_P1;SDS_P2;PMS_P1;PMS_P2;Temp;Humidity;BMP_temperature;BMP_pressure;BME280_temperature;BME280_humidity;BME280_pressure;Samples;Min_cycle;Max_cycle;Signal;HPM_P1;HPM_P2
2023/03/12 00:00:43;;;;;;;3.97;2.40;;;3.00;99.90;;;;;;5040472;28;20383;-86
2023/03/12 00:03:09;;;;;;;4.47;2.70;;;3.10;99.90;;;;;;5064350;28;20408;-85
2023/03/12 00:05:42;;;;;;;6.30;2.72;;;3.20;99.90;;;;;;5041073;28;20413;-85
2023/03/12 00:08:08;;;;;;;5.07;2.83;;;3.20;1.00;;;;;;5039462;28;20424;-84
2023/03/12 00:10:34;;;;;;;4.55;3.63;;;3.30;1.00;;;;;;5056301;28;20400;-84
2023/03/12 00:13:00;;;;;;;5.57;2.53;;;3.20;1.00;;;;;;5040079;28;20393;-84
2023/03/12 00:15:26;;;;;;;4.10;2.60;;;3.30;1.00;;;;;;5058130;28;20460;-84
2023/03/12 00:17:52;;;;;;;4.50;3.17;;;3.40;99.90;;;;;;5058563;28;20405;-85
2023/03/12 00:20:18;;;;;;;4.90;3.03;;;3.40;1.00;;;;;;5039866;28;20404;-85
2023/03/12 00:22:44;;;;;;;4.75;2.90;;;3.30;1.00;;;;;;5043329;28;20417;-85
2023/03/12 00:25:13;;;;;;;4.40;2.93;;;3.40;1.00;;;;;;5059741;28;20401;-84
2023/03/12 00:27:39;;;;;;;3.50;3.20;;;3.40;52.90;;;;;;5040987;28;20397;-84
2023/03/12 00:30:05;;;;;;;4.40;3.50;;;3.30;99.90;;;;;;5041828;28;20386;-84
2023/03/12 00:32:32;;;;;;;3.92;3.40;;;3.20;99.90;;;;;;5041838;28;20443;-84
2023/03/12 00:34:58;;;;;;;6.13;2.88;;;3.30;99.90;;;;;;5041440;28;20389;-84
2023/03/12 00:37:23;;;;;;;4.20;3.10;;;3.40;99.90;;;;;;5038663;28;20451;-84
2023/03/12 00:39:49;;;;;;;2.80;2.47;;;3.40;99.90;;;;;;5038705;28;20381;-84
2023/03/12 00:42:15;;;;;;;5.17;3.30;;;3.40;99.90;;;;;;5056786;28;20385;-84
2023/03/12 00:44:42;;;;;;;3.25;2.95;;;3.40;99.90;;;;;;5038404;28;20405;-84
2023/03/12 00:47:07;;;;;;;5.63;3.30;;;3.60;99.90;;;;;;5038114;28;20386;-84
2023/03/12 00:49:33;;;;;;;6.00;3.50;;;3.70;99.90;;;;;;5038686;28;20404;-84
2023/03/12 00:51:58;;;;;;;3.78;3.13;;;3.60;99.90;;;;;;5037863;28;20401;-84
2023/03/12 00:54:24;;;;;;;3.88;3.05;;;3.60;99.90;;;;;;5038424;28;20389;-84
2023/03/12 00:56:50;;;;;;;4.17;3.73;;;4.10;99.90;;;;;;5034054;28;20411;-84
2023/03/12 00:59:15;;;;;;;4.17;3.57;;;3.50;99.90;;;;;;5036137;28;20394;-84
2023/03/12 01:01:41;;;;;;;5.00;3.20;;;3.50;99.90;;;;;;5036597;28;20478;-84
2023/03/12 01:04:07;;;;;;;3.90;3.20;;;3.50;1.00;;;;;;5017630;28;20391;-84
2023/03/12 01:06:33;;;;;;;4.20;3.17;;;3.40;1.00;;;;;;5036079;28;20390;-85
2023/03/12 01:09:01;;;;;;;4.43;3.40;;;3.60;1.00;;;;;;5038257;28;20386;-84
2023/03/12 01:11:27;;;;;;;5.07;3.45;;;3.50;99.90;;;;;;5046495;28;20435;-85
2023/03/12 01:13:53;;;;;;;4.40;3.50;;;3.50;1.00;;;;;;5068495;28;20382;-84
2023/03/12 01:16:18;;;;;;;4.50;3.60;;;3.50;1.00;;;;;;5038369;28;20442;-84
2023/03/12 01:18:44;;;;;;;4.93;3.20;;;3.60;99.90;;;;;;5056779;28;20454;-84
2023/03/12 01:21:09;;;;;;;3.50;3.20;;;3.60;99.90;;;;;;5038083;28;20807;-84
2023/03/12 01:23:36;;;;;;;6.63;3.80;;;3.60;1.00;;;;;;5059921;28;20385;-84
2023/03/12 01:26:02;;;;;;;5.22;3.47;;;3.60;99.90;;;;;;5041518;28;20488;-84
2023/03/12 01:28:27;;;;;;;4.53;3.35;;;3.70;1.00;;;;;;5042066;28;20828;-84
2023/03/12 01:30:53;;;;;;;5.20;3.60;;;3.60;1.00;;;;;;5041504;28;20393;-84
2023/03/12 01:33:21;;;;;;;4.00;2.80;;;3.50;99.90;;;;;;5060552;28;20704;-85
2023/03/12 01:35:47;;;;;;;3.90;3.20;;;3.70;99.90;;;;;;5058282;28;20457;-85
2023/03/12 01:38:15;;;;;;;3.95;3.30;;;3.80;99.90;;;;;;5059622;28;20516;-84
2023/03/12 01:40:41;;;;;;;4.40;3.42;;;3.70;99.90;;;;;;5041556;28;20480;-84
2023/03/12 01:43:25;;;;;;;3.67;2.90;;;3.80;99.90;;;;;;5041260;28;20927;-85
2023/03/12 01:46:15;;;;;;;3.65;3.10;;;3.80;99.90;;;;;;5058746;28;20408;-84
2023/03/12 01:48:48;;;;;;;3.40;3.10;;;3.60;99.90;;;;;;5039909;28;20393;-84
2023/03/12 01:51:16;;;;;;;4.30;3.00;;;3.80;99.90;;;;;;5040149;28;21022;-83
2023/03/12 01:53:45;;;;;;;3.17;2.88;;;3.90;99.90;;;;;;5049021;28;20386;-84
2023/03/12 01:56:14;;;;;;;5.30;3.00;;;3.80;99.90;;;;;;5062331;28;20491;-84
2023/03/12 01:58:44;;;;;;;4.80;3.03;;;3.80;99.90;;;;;;5061737;28;20491;-84
2023/03/12 02:01:09;;;;;;;4.00;2.70;;;3.70;99.90;;;;;;5054108;28;20417;-84
2023/03/12 02:03:35;;;;;;;3.17;2.88;;;3.60;99.90;;;;;;5052808;28;20702;-85
2023/03/12 02:06:05;;;;;;;3.50;3.20;;;3.70;1.00;;;;;;5046543;28;20405;-84
2023/03/12 02:08:36;;;;;;;4.53;3.10;;;3.90;99.90;;;;;;5056781;28;20381;-84
2023/03/12 02:11:02;;;;;;;5.05;2.67;;;3.90;99.90;;;;;;5032177;28;20397;-84
2023/03/12 02:13:28;;;;;;;3.90;2.90;;;3.90;1.00;;;;;;5038383;28;20480;-85
2023/03/12 02:15:53;;;;;;;7.83;3.40;;;3.90;1.00;;;;;;5048746;28;20830;-84
2023/03/12 02:18:20;;;;;;;4.67;3.00;;;3.70;1.00;;;;;;5038458;28;20385;-84
2023/03/12 02:20:56;;;;;;;5.00;2.83;;;3.80;1.00;;;;;;5038151;28;20381;-85
2023/03/12 02:23:40;;;;;;;3.70;2.65;;;3.90;1.00;;;;;;5038410;28;20386;-85
2023/03/12 02:26:06;;;;;;;4.32;3.28;;;3.80;1.00;;;;;;5030968;28;20442;-85
2023/03/12 02:28:33;;;;;;;4.15;3.33;;;3.80;1.00;;;;;;5043358;28;20456;-84
2023/03/12 02:31:02;;;;;;;4.45;2.72;;;3.80;1.00;;;;;;5021142;28;20387;-85
2023/03/12 02:33:28;;;;;;;4.30;3.25;;;3.80;1.00;;;;;;5037402;28;20391;-84
2023/03/12 02:35:54;;;;;;;3.35;2.60;;;3.70;1.00;;;;;;5019833;28;21021;-85
2023/03/12 02:38:32;;;;;;;4.47;3.10;;;3.80;1.00;;;;;;5020216;28;20485;-84
2023/03/12 02:41:02;;;;;;;4.50;2.90;;;3.80;24.40;;;;;;5031515;28;20798;-84
2023/03/12 02:43:28;;;;;;;4.97;2.60;;;3.80;95.00;;;;;;5059204;28;20388;-84
2023/03/12 02:45:54;;;;;;;3.90;2.70;;;3.70;99.90;;;;;;5070307;28;20405;-85
2023/03/12 02:48:20;;;;;;;3.92;2.90;;;3.60;99.90;;;;;;5071015;28;20381;-85
2023/03/12 02:50:45;;;;;;;6.05;3.08;;;3.60;99.90;;;;;;5052493;28;20409;-84
2023/03/12 02:53:11;;;;;;;4.72;3.00;;;3.60;99.90;;;;;;5049857;28;20465;-84
2023/03/12 02:55:36;;;;;;;5.47;2.50;;;3.70;99.90;;;;;;5055149;28;20404;-85
2023/03/12 02:58:02;;;;;;;3.53;2.83;;;3.70;99.90;;;;;;5042448;28;20397;-85
2023/03/12 03:00:30;;;;;;;4.57;2.90;;;3.70;99.90;;;;;;5043963;28;20404;-85
2023/03/12 03:02:58;;;;;;;3.65;2.55;;;3.80;99.90;;;;;;5043441;28;20927;-85
2023/03/12 03:05:23;;;;;;;3.85;3.08;;;3.80;99.90;;;;;;5060732;28;20424;-85
2023/03/12 03:07:49;;;;;;;3.90;2.72;;;3.70;99.90;;;;;;5062473;28;20505;-84
2023/03/12 03:10:16;;;;;;;3.97;2.80;;;3.80;99.90;;;;;;5048300;28;20412;-85
2023/03/12 03:12:42;;;;;;;4.72;3.00;;;3.80;99.90;;;;;;5070297;28;20393;-84
2023/03/12 03:15:08;;;;;;;4.00;2.45;;;3.90;99.90;;;;;;5060314;28;20405;-84
2023/03/12 03:17:34;;;;;;;6.45;2.70;;;3.90;99.90;;;;;;5059480;28;20400;-84
2023/03/12 03:19:59;;;;;;;3.60;2.60;;;3.90;99.90;;;;;;5042243;28;20891;-85
2023/03/12 03:22:25;;;;;;;4.43;2.90;;;4.00;99.90;;;;;;5059794;28;20424;-84
2023/03/12 03:24:52;;;;;;;3.90;2.78;;;4.00;99.90;;;;;;5059233;28;20420;-84
2023/03/12 03:27:18;;;;;;;3.88;2.75;;;4.10;99.90;;;;;;5042262;28;20405;-85
2023/03/12 03:29:45;;;;;;;3.10;2.80;;;4.10;99.90;;;;;;5074967;28;20380;-84
2023/03/12 03:32:11;;;;;;;3.03;2.80;;;4.30;99.90;;;;;;5045827;28;20943;-84
2023/03/12 03:34:37;;;;;;;3.13;2.72;;;4.20;99.90;;;;;;5041075;28;20461;-84
2023/03/12 03:37:03;;;;;;;3.38;2.78;;;4.30;99.90;;;;;;5040215;28;20394;-84
2023/03/12 03:39:29;;;;;;;3.13;2.75;;;4.40;99.90;;;;;;5039580;28;20400;-84
2023/03/12 03:41:55;;;;;;;3.72;2.65;;;4.60;99.90;;;;;;5058359;28;20393;-84
2023/03/12 03:44:21;;;;;;;5.82;3.17;;;4.60;99.90;;;;;;5039756;28;20787;-84
2023/03/12 03:46:48;;;;;;;5.05;2.70;;;4.50;99.90;;;;;;5038250;28;20398;-84
2023/03/12 03:49:14;;;;;;;3.63;2.53;;;4.60;99.90;;;;;;5057584;28;20419;-85
2023/03/12 03:51:41;;;;;;;2.75;2.55;;;4.60;99.90;;;;;;5040122;28;20886;-84
2023/03/12 03:54:07;;;;;;;3.97;2.50;;;4.50;99.90;;;;;;5048387;28;20489;-84
2023/03/12 03:56:33;;;;;;;3.60;3.00;;;4.60;99.90;;;;;;5027467;28;20474;-84
2023/03/12 03:59:00;;;;;;;3.67;2.60;;;4.40;99.90;;;;;;5037928;28;20855;-84
2023/03/12 04:01:26;;;;;;;3.80;2.55;;;4.50;99.90;;;;;;5033915;28;20382;-85
2023/03/12 04:03:52;;;;;;;2.70;2.50;;;4.60;99.90;;;;;;5033971;28;20386;-84
2023/03/12 04:06:18;;;;;;;2.73;2.50;;;4.60;99.90;;;;;;5033482;28;20530;-84
2023/03/12 04:08:43;;;;;;;3.08;2.78;;;4.60;99.90;;;;;;5033940;28;20404;-84
2023/03/12 04:11:12;;;;;;;4.10;3.10;;;4.50;99.90;;;;;;5051729;28;20393;-84
2023/03/12 04:13:37;;;;;;;3.07;2.40;;;4.50;99.90;;;;;;5053231;28;20944;-85
2023/03/12 04:16:04;;;;;;;4.10;2.80;;;4.60;99.90;;;;;;5053802;28;20464;-84
2023/03/12 04:18:29;;;;;;;3.55;2.55;;;4.80;99.90;;;;;;5051906;28;20475;-84
2023/03/12 04:20:55;;;;;;;3.10;2.60;;;4.80;99.90;;;;;;5033505;28;20400;-84
2023/03/12 04:23:20;;;;;;;4.00;3.00;;;4.70;99.90;;;;;;5036580;28;20439;-85
2023/03/12 04:25:46;;;;;;;4.40;2.70;;;4.60;99.90;;;;;;5055906;28;20397;-84
2023/03/12 04:28:11;;;;;;;3.47;2.95;;;4.70;99.90;;;;;;5035419;28;20404;-84
2023/03/12 04:30:37;;;;;;;3.00;2.80;;;4.60;99.90;;;;;;5037745;28;20955;-84
2023/03/12 04:33:04;;;;;;;3.40;3.10;;;4.70;99.90;;;;;;5036119;28;20488;-84
2023/03/12 04:35:30;;;;;;;3.92;3.20;;;4.60;99.90;;;;;;5034279;28;20450;-84
2023/03/12 04:37:55;;;;;;;3.60;3.10;;;4.50;99.90;;;;;;5036465;28;20381;-84
2023/03/12 04:40:21;;;;;;;3.73;3.03;;;4.60;99.90;;;;;;5055181;28;20388;-84
2023/03/12 04:42:47;;;;;;;3.33;2.97;;;4.70;99.90;;;;;;5054901;28;20752;-84
2023/03/12 04:45:13;;;;;;;2.90;2.70;;;4.70;99.90;;;;;;5054913;28;20969;-84
2023/03/12 04:47:38;;;;;;;3.40;3.10;;;4.80;99.90;;;;;;5036691;28;20879;-84
2023/03/12 04:50:04;;;;;;;4.18;3.33;;;4.60;99.90;;;;;;5035451;28;20456;-84
2023/03/12 04:52:30;;;;;;;3.58;3.28;;;4.70;99.90;;;;;;5037369;28;20390;-84
2023/03/12 04:54:56;;;;;;;3.40;3.10;;;4.70;99.90;;;;;;5036977;28;20814;-84
2023/03/12 04:57:21;;;;;;;4.10;3.17;;;4.70;99.90;;;;;;5046175;28;20386;-83
2023/03/12 04:59:47;;;;;;;3.40;2.80;;;4.70;99.90;;;;;;5028719;28;20393;-84
2023/03/12 05:02:13;;;;;;;3.20;2.90;;;4.80;99.90;;;;;;5035147;28;20401;-84
2023/03/12 05:04:38;;;;;;;5.80;2.80;;;5.00;99.90;;;;;;5037011;28;20459;-84
2023/03/12 05:07:04;;;;;;;3.20;3.00;;;5.10;99.90;;;;;;5037460;28;20389;-84
2023/03/12 05:09:29;;;;;;;2.30;2.10;;;5.20;99.90;;;;;;5036268;28;20385;-84
2023/03/12 05:11:55;;;;;;;1.90;1.80;;;6.10;99.90;;;;;;5055059;28;20382;-84
2023/03/12 05:14:20;;;;;;;1.77;1.57;;;6.60;99.90;;;;;;5036715;28;20552;-83
2023/03/12 05:16:46;;;;;;;1.90;1.80;;;7.00;99.90;;;;;;5052086;28;20842;-83
2023/03/12 05:19:11;;;;;;;1.73;1.63;;;7.10;99.90;;;;;;5035178;28;20483;-83
2023/03/12 05:21:41;;;;;;;1.73;1.60;;;7.40;99.90;;;;;;5052381;28;20863;-83
2023/03/12 05:24:07;;;;;;;1.50;1.40;;;7.50;99.90;;;;;;5052254;28;20413;-84
2023/03/12 05:26:33;;;;;;;2.10;1.90;;;7.60;99.90;;;;;;5053153;28;20775;-83
2023/03/12 05:29:02;;;;;;;2.00;1.50;;;7.70;99.90;;;;;;5036528;28;20382;-83
2023/03/12 05:31:31;;;;;;;2.05;1.85;;;7.70;99.90;;;;;;5054256;28;20416;-83
2023/03/12 05:33:58;;;;;;;1.60;1.40;;;7.70;99.90;;;;;;5035555;28;20390;-83
2023/03/12 05:36:24;;;;;;;1.88;1.67;;;7.80;99.90;;;;;;5035309;28;20511;-83
2023/03/12 05:38:50;;;;;;;2.08;1.50;;;7.80;99.90;;;;;;5056029;28;20394;-84
2023/03/12 05:41:27;;;;;;;2.30;1.63;;;7.80;99.90;;;;;;5037222;28;20396;-83
2023/03/12 05:43:55;;;;;;;1.67;1.58;;;7.80;99.90;;;;;;5054881;28;20378;-83
2023/03/12 05:46:21;;;;;;;2.15;1.70;;;7.80;99.90;;;;;;5035250;28;20411;-83
2023/03/12 05:48:46;;;;;;;1.70;1.60;;;7.80;99.90;;;;;;5033138;28;20381;-83
2023/03/12 05:51:12;;;;;;;1.90;1.50;;;7.80;99.90;;;;;;5051343;28;21050;-83
2023/03/12 05:53:38;;;;;;;1.30;1.20;;;7.90;99.90;;;;;;5038505;28;20385;-83
2023/03/12 05:56:06;;;;;;;1.50;1.40;;;7.90;99.90;;;;;;5040405;28;20385;-85
2023/03/12 05:58:32;;;;;;;1.60;1.30;;;8.00;99.90;;;;;;5052584;28;20400;-85
2023/03/12 06:01:01;;;;;;;1.38;1.27;;;8.00;99.90;;;;;;5069054;28;20393;-84
2023/03/12 06:03:26;;;;;;;1.20;1.10;;;8.10;99.90;;;;;;5038866;28;20423;-84
2023/03/12 06:05:54;;;;;;;1.10;1.00;;;8.20;99.90;;;;;;5056804;28;20431;-84
2023/03/12 06:08:20;;;;;;;1.40;1.10;;;8.10;99.90;;;;;;5042285;28;20425;-85
2023/03/12 06:10:46;;;;;;;1.10;1.00;;;8.10;99.90;;;;;;5061462;28;20783;-84
2023/03/12 06:13:12;;;;;;;1.30;1.20;;;8.20;99.90;;;;;;5043363;28;20413;-84
2023/03/12 06:15:37;;;;;;;1.23;1.13;;;8.20;99.90;;;;;;5067227;28;20385;-84
2023/03/12 06:18:03;;;;;;;1.30;1.00;;;8.20;99.90;;;;;;5056232;28;20370;-84
2023/03/12 06:20:29;;;;;;;1.10;1.00;;;8.30;99.90;;;;;;5060304;28;20460;-84
2023/03/12 06:22:54;;;;;;;1.30;1.10;;;8.40;99.90;;;;;;5070594;28;20927;-84
2023/03/12 06:25:20;;;;;;;1.70;1.60;;;8.30;99.90;;;;;;5043998;28;21065;-84
2023/03/12 06:27:45;;;;;;;1.43;1.10;;;8.40;99.90;;;;;;5046309;28;20382;-85
2023/03/12 06:30:11;;;;;;;1.80;1.00;;;8.40;99.90;;;;;;5061374;28;20443;-84
2023/03/12 06:32:37;;;;;;;1.10;1.00;;;8.40;99.90;;;;;;5063306;28;20444;-85
2023/03/12 06:35:04;;;;;;;1.10;1.00;;;8.40;99.90;;;;;;5043234;28;20397;-84
2023/03/12 06:37:30;;;;;;;1.90;1.10;;;8.40;99.90;;;;;;5041210;28;20392;-84
2023/03/12 06:39:55;;;;;;;1.20;1.10;;;8.40;99.90;;;;;;5060391;28;20760;-84
2023/03/12 06:42:21;;;;;;;1.20;1.10;;;8.40;99.90;;;;;;5041698;28;20443;-84
2023/03/12 06:44:47;;;;;;;1.50;1.40;;;8.30;99.90;;;;;;5059811;28;20405;-84
2023/03/12 06:47:13;;;;;;;0.82;0.75;;;8.40;99.90;;;;;;5066871;28;20385;-84
2023/03/12 06:49:38;;;;;;;1.00;0.90;;;8.30;99.90;;;;;;5045506;28;20413;-84
2023/03/12 06:52:04;;;;;;;1.20;0.87;;;8.30;99.90;;;;;;5059082;28;20382;-84
2023/03/12 06:54:30;;;;;;;1.50;0.88;;;8.40;99.90;;;;;;5040476;28;20397;-85
2023/03/12 06:56:58;;;;;;;1.40;1.00;;;8.40;99.90;;;;;;5037474;28;20898;-84
2023/03/12 06:59:24;;;;;;;1.50;0.80;;;8.30;99.90;;;;;;5055269;28;20397;-86
2023/03/12 07:01:49;;;;;;;1.90;0.75;;;8.50;99.90;;;;;;5039206;28;20389;-84
2023/03/12 07:04:15;;;;;;;0.90;0.80;;;8.60;99.90;;;;;;5057807;28;20438;-84
2023/03/12 07:06:41;;;;;;;0.77;0.70;;;8.80;99.90;;;;;;5066542;23;20426;-71
2023/03/12 07:09:06;;;;;;;1.20;0.70;;;8.90;99.90;;;;;;5072714;28;20413;-71
2023/03/12 07:11:32;;;;;;;0.80;0.70;;;9.00;99.90;;;;;;5072387;28;20391;-71
2023/03/12 07:13:57;;;;;;;1.30;0.90;;;9.00;99.90;;;;;;5072509;28;20387;-72
2023/03/12 07:16:23;;;;;;;0.93;0.80;;;9.00;99.90;;;;;;5069219;28;20993;-71
2023/03/12 07:18:49;;;;;;;2.00;1.10;;;9.00;99.90;;;;;;5051736;28;20498;-71
2023/03/12 07:21:21;;;;;;;0.83;0.83;;;9.00;99.90;;;;;;5048137;28;20393;-71
2023/03/12 07:23:50;;;;;;;1.00;0.90;;;9.10;99.90;;;;;;5043074;28;20375;-70
2023/03/12 07:26:15;;;;;;;1.00;0.75;;;9.10;99.90;;;;;;5047274;28;20409;-71
2023/03/12 07:28:41;;;;;;;1.00;0.70;;;9.10;99.90;;;;;;5051269;28;20481;-71
2023/03/12 07:31:06;;;;;;;1.20;0.90;;;9.10;99.90;;;;;;5051912;28;20472;-72
2023/03/12 07:33:32;;;;;;;1.10;1.00;;;9.10;99.90;;;;;;5053253;28;20400;-72
2023/03/12 07:35:58;;;;;;;2.25;1.10;;;9.20;99.90;;;;;;5052463;28;20385;-73
2023/03/12 07:38:24;;;;;;;2.30;0.95;;;9.10;99.90;;;;;;5051966;28;20871;-72
2023/03/12 07:40:54;;;;;;;1.17;1.08;;;9.20;99.90;;;;;;5051872;28;20768;-73
2023/03/12 07:43:19;;;;;;;1.10;1.00;;;9.20;99.90;;;;;;5051356;28;20767;-72
2023/03/12 07:45:45;;;;;;;2.00;1.00;;;9.30;99.90;;;;;;5051448;28;20495;-72
2023/03/12 07:48:10;;;;;;;1.30;1.00;;;9.50;99.90;;;;;;5053467;28;20421;-71
2023/03/12 07:50:37;;;;;;;1.20;1.10;;;9.50;99.90;;;;;;5053184;28;20381;-72
2023/03/12 07:53:03;;;;;;;1.08;0.98;;;9.40;99.90;;;;;;5052960;28;20423;-71
2023/03/12 07:55:30;;;;;;;2.30;1.25;;;9.40;99.90;;;;;;5052345;28;20377;-71
2023/03/12 07:57:57;;;;;;;1.20;1.00;;;9.50;99.90;;;;;;5039295;28;20394;-71
2023/03/12 08:00:24;;;;;;;2.03;1.08;;;9.50;99.90;;;;;;5031883;28;20417;-72
2023/03/12 08:02:49;;;;;;;2.20;1.27;;;9.50;99.90;;;;;;5048514;28;20393;-72
2023/03/12 08:05:15;;;;;;;2.00;1.00;;;9.60;99.90;;;;;;5051536;28;20990;-72
2023/03/12 08:07:41;;;;;;;1.60;1.00;;;9.60;99.90;;;;;;5052759;28;20404;-71
2023/03/12 08:10:08;;;;;;;1.70;0.80;;;9.70;99.90;;;;;;5051532;28;20396;-71
2023/03/12 08:12:33;;;;;;;1.08;0.88;;;9.70;99.90;;;;;;5047429;28;20476;-71
2023/03/12 08:14:59;;;;;;;1.63;1.00;;;9.70;99.90;;;;;;5045345;28;20472;-70
2023/03/12 08:17:25;;;;;;;1.57;1.07;;;9.60;99.90;;;;;;5039649;28;20423;-70
2023/03/12 08:19:50;;;;;;;1.08;0.90;;;9.70;99.90;;;;;;5035576;28;20933;-71
2023/03/12 08:22:16;;;;;;;2.50;1.00;;;9.70;99.90;;;;;;5031171;28;20383;-72
2023/03/12 08:24:42;;;;;;;1.33;0.80;;;9.80;99.90;;;;;;5031264;28;20403;-72
2023/03/12 08:27:08;;;;;;;0.90;0.70;;;9.80;99.90;;;;;;5041502;28;20420;-72
2023/03/12 08:29:33;;;;;;;1.75;0.73;;;9.80;99.90;;;;;;5052442;28;20388;-71
2023/03/12 08:31:59;;;;;;;1.55;0.75;;;9.90;99.90;;;;;;5043230;28;20378;-73
2023/03/12 08:34:25;;;;;;;2.00;0.80;;;9.80;99.90;;;;;;5046861;28;20387;-72
2023/03/12 08:36:50;;;;;;;1.00;0.60;;;9.90;99.90;;;;;;5032404;28;20505;-73
2023/03/12 08:39:16;;;;;;;1.80;0.60;;;9.90;99.90;;;;;;5043630;28;20413;-71
2023/03/12 08:41:41;;;;;;;1.77;0.70;;;11.00;99.90;;;;;;5040336;28;20397;-72
2023/03/12 08:44:07;;;;;;;1.17;0.98;;;10.30;99.90;;;;;;5040532;28;20382;-73
2023/03/12 08:46:33;;;;;;;1.40;0.80;;;10.20;99.90;;;;;;5044258;28;20409;-73
2023/03/12 08:48:59;;;;;;;1.20;0.80;;;10.30;99.90;;;;;;5042258;28;20387;-72
2023/03/12 08:51:24;;;;;;;2.13;0.60;;;10.30;99.90;;;;;;5041232;28;20519;-74
2023/03/12 08:53:50;;;;;;;1.30;0.50;;;10.20;99.90;;;;;;5041795;28;20402;-74
2023/03/12 08:56:16;;;;;;;1.00;0.60;;;10.40;99.90;;;;;;5038107;28;20460;-73
2023/03/12 08:58:42;;;;;;;1.47;0.70;;;10.40;99.90;;;;;;5041038;28;20455;-73
2023/03/12 09:01:10;;;;;;;0.90;0.80;;;10.30;99.90;;;;;;5045119;28;20412;-73
2023/03/12 09:03:36;;;;;;;0.80;0.60;;;10.20;99.90;;;;;;5034515;28;20912;-73
2023/03/12 09:06:05;;;;;;;0.80;0.57;;;10.10;99.90;;;;;;5044397;28;20469;-73
2023/03/12 09:08:32;;;;;;;1.90;0.70;;;10.10;99.90;;;;;;5040901;28;20399;-73
2023/03/12 09:10:59;;;;;;;0.90;0.80;;;10.10;99.90;;;;;;5042538;28;20389;-73
2023/03/12 09:13:25;;;;;;;0.70;0.60;;;10.30;99.90;;;;;;5032850;28;20472;-74
2023/03/12 09:15:51;;;;;;;0.90;0.77;;;10.30;99.90;;;;;;5046190;28;20379;-74
2023/03/12 09:18:18;;;;;;;0.70;0.50;;;10.20;99.90;;;;;;5038115;28;20385;-74
2023/03/12 09:20:44;;;;;;;0.63;0.57;;;10.20;99.90;;;;;;5046368;28;20523;-73
2023/03/12 09:23:09;;;;;;;0.70;0.63;;;10.40;99.90;;;;;;5045861;28;20480;-74
2023/03/12 09:25:35;;;;;;;0.70;0.60;;;10.30;99.90;;;;;;5044324;28;20514;-74
2023/03/12 09:28:01;;;;;;;0.70;0.60;;;10.30;99.90;;;;;;5041895;28;20466;-74
2023/03/12 09:30:29;;;;;;;1.10;0.50;;;10.40;99.90;;;;;;5037752;28;20393;-74
2023/03/12 09:32:54;;;;;;;0.60;0.50;;;10.40;99.90;;;;;;5036961;28;20395;-74
2023/03/12 09:35:20;;;;;;;0.90;0.50;;;10.40;99.90;;;;;;5043360;28;20401;-74
2023/03/12 09:37:48;;;;;;;0.90;0.60;;;10.40;99.90;;;;;;5042771;28;20383;-75
2023/03/12 09:40:18;;;;;;;1.30;0.40;;;10.50;99.90;;;;;;5041490;28;20462;-73
2023/03/12 09:42:50;;;;;;;1.20;0.50;;;10.50;99.90;;;;;;5041256;28;20428;-73
2023/03/12 09:45:20;;;;;;;0.90;0.50;;;10.60;99.90;;;;;;5038572;28;20456;-73
2023/03/12 09:47:49;;;;;;;0.60;0.60;;;10.70;99.90;;;;;;5050413;28;20937;-72
2023/03/12 09:50:19;;;;;;;0.75;0.60;;;10.70;99.90;;;;;;5034315;28;20386;-72
2023/03/12 09:53:05;;;;;;;1.60;0.85;;;10.80;99.90;;;;;;5034020;28;20387;-72
2023/03/12 09:55:52;;;;;;;1.40;0.60;;;10.90;99.90;;;;;;5039100;28;20826;-73
2023/03/12 09:58:32;;;;;;;1.05;0.70;;;11.00;99.90;;;;;;5037173;28;20407;-72
2023/03/12 10:01:05;;;;;;;1.30;0.70;;;11.00;99.90;;;;;;5034037;28;20418;-73
2023/03/12 10:04:13;;;;;;;0.90;0.70;;;11.10;99.90;;;;;;5032565;28;20391;-73
2023/03/12 10:06:45;;;;;;;0.80;0.70;;;11.30;99.90;;;;;;5013730;28;20406;-72
2023/03/12 10:09:33;;;;;;;2.20;0.80;;;11.30;99.90;;;;;;5039342;28;20401;-73
2023/03/12 10:12:21;;;;;;;0.90;0.70;;;11.10;99.90;;;;;;5053609;28;20387;-71
2023/03/12 10:15:13;;;;;;;0.90;0.70;;;11.10;99.90;;;;;;5053906;28;20495;-72
2023/03/12 10:18:11;;;;;;;0.75;0.70;;;11.10;99.90;;;;;;5053728;28;20381;-72
2023/03/12 10:20:55;;;;;;;0.75;0.70;;;11.10;99.90;;;;;;5052921;28;20447;-72
2023/03/12 10:23:55;;;;;;;0.70;0.70;;;11.00;99.90;;;;;;5053330;28;20393;-72
2023/03/12 10:26:24;;;;;;;1.20;0.80;;;11.20;99.90;;;;;;5053056;28;20440;-72
2023/03/12 10:28:55;;;;;;;0.70;0.60;;;11.10;99.90;;;;;;5051883;28;20447;-72
2023/03/12 10:31:55;;;;;;;0.90;0.68;;;11.20;99.90;;;;;;5052859;28;20725;-72
2023/03/12 10:34:24;;;;;;;1.30;0.60;;;11.30;99.90;;;;;;5052006;28;20423;-72
2023/03/12 10:36:50;;;;;;;1.30;0.70;;;11.10;99.90;;;;;;5052898;28;20387;-72
2023/03/12 10:39:19;;;;;;;0.90;0.60;;;11.10;99.90;;;;;;5053221;28;20381;-73
2023/03/12 10:41:46;;;;;;;1.10;0.80;;;11.30;99.90;;;;;;5052865;28;20382;-73
2023/03/12 10:44:23;;;;;;;2.00;1.00;;;11.20;98.10;;;;;;5040731;28;20387;-72
2023/03/12 10:47:02;;;;;;;2.30;0.80;;;11.40;1.00;;;;;;5043295;28;20398;-73
2023/03/12 10:49:30;;;;;;;1.27;1.08;;;11.30;61.90;;;;;;5043276;28;20772;-72
2023/03/12 10:52:17;;;;;;;1.30;0.90;;;11.60;1.00;;;;;;5040721;28;20482;-72
2023/03/12 10:54:45;;;;;;;1.55;0.90;;;11.60;7.10;;;;;;5034547;28;20391;-73
2023/03/12 10:57:12;;;;;;;1.15;0.90;;;11.70;1.00;;;;;;5042666;28;20387;-73
2023/03/12 10:59:41;;;;;;;1.40;0.90;;;11.80;1.00;;;;;;5048864;28;20389;-73
2023/03/12 11:02:31;;;;;;;1.00;0.80;;;11.80;1.00;;;;;;5037149;28;20390;-72
2023/03/12 11:04:58;;;;;;;2.87;1.47;;;11.80;1.00;;;;;;5051650;28;20408;-73
2023/03/12 11:07:31;;;;;;;1.25;1.00;;;12.10;1.00;;;;;;5040471;28;20759;-73
2023/03/12 11:10:06;;;;;;;1.90;0.88;;;12.00;1.00;;;;;;5041144;28;20387;-72
2023/03/12 11:12:34;;;;;;;1.40;1.00;;;12.00;1.00;;;;;;5040630;28;20383;-72
2023/03/12 11:15:31;;;;;;;2.10;1.00;;;12.00;1.00;;;;;;5037641;28;20390;-72
2023/03/12 11:18:26;;;;;;;1.35;1.05;;;12.40;1.00;;;;;;5042497;28;20381;-72
2023/03/12 11:21:13;;;;;;;3.60;1.40;;;12.70;1.00;;;;;;5042018;28;20393;-72
2023/03/12 11:23:42;;;;;;;1.70;1.38;;;13.20;99.90;;;;;;5063307;28;20379;-84
2023/03/12 11:26:51;;;;;;;1.33;0.80;;;12.70;99.90;;;;;;5062139;28;20462;-83
2023/03/12 11:29:23;;;;;;;2.15;1.15;;;12.90;94.20;;;;;;5053474;28;20434;-85
2023/03/12 11:31:55;;;;;;;2.38;1.20;;;12.40;1.00;;;;;;5054987;28;20387;-85
2023/03/12 11:34:25;;;;;;;2.17;1.30;;;12.20;1.00;;;;;;5064397;28;20377;-84
2023/03/12 11:37:18;;;;;;;3.00;1.30;;;12.00;1.00;;;;;;5064177;28;20758;-84
2023/03/12 11:40:21;;;;;;;2.60;1.00;;;11.90;1.00;;;;;;5069783;28;20432;-84
2023/03/12 11:42:53;;;;;;;1.30;1.00;;;11.70;1.00;;;;;;5054369;28;20430;-83
2023/03/12 11:45:42;;;;;;;2.20;1.10;;;11.70;1.00;;;;;;5064265;28;20412;-85
2023/03/12 11:48:24;;;;;;;1.70;1.00;;;11.90;1.00;;;;;;5062080;28;20416;-85
2023/03/12 11:51:11;;;;;;;2.58;1.10;;;12.30;99.90;;;;;;5064766;28;20378;-84
2023/03/12 11:53:55;;;;;;;1.50;1.05;;;12.50;99.90;;;;;;5057698;28;20409;-85
2023/03/12 11:56:37;;;;;;;3.20;1.10;;;12.20;99.90;;;;;;5057904;28;20385;-86
2023/03/12 11:59:09;;;;;;;2.63;1.10;;;12.50;99.90;;;;;;5063186;28;20807;-85
2023/03/12 12:01:49;;;;;;;3.38;1.40;;;12.40;99.90;;;;;;5066192;28;20386;-84
2023/03/12 12:05:02;;;;;;;2.27;1.00;;;12.50;99.90;;;;;;5068499;28;20398;-85
2023/03/12 12:08:01;;;;;;;3.40;1.40;;;12.60;99.90;;;;;;5069314;28;20402;-85
2023/03/12 12:10:42;;;;;;;3.53;1.20;;;12.40;99.90;;;;;;5059660;28;20380;-86
2023/03/12 12:13:27;;;;;;;4.13;1.70;;;12.90;1.00;;;;;;5049465;28;20470;-85
2023/03/12 12:15:53;;;;;;;4.80;1.50;;;13.10;1.00;;;;;;5047720;28;20398;-85
2023/03/12 12:18:28;;;;;;;5.57;1.70;;;13.20;99.90;;;;;;5063423;28;20403;-84
2023/03/12 12:21:06;;;;;;;4.05;1.48;;;13.30;1.00;;;;;;5066523;28;20380;-84
2023/03/12 12:23:56;;;;;;;2.20;1.10;;;13.70;1.00;;;;;;5068206;28;20397;-86
2023/03/12 12:26:36;;;;;;;2.60;1.20;;;14.80;99.90;;;;;;5069495;28;20397;-85
2023/03/12 12:29:46;;;;;;;3.60;1.48;;;15.70;1.00;;;;;;5071906;28;20384;-86
2023/03/12 12:32:43;;;;;;;4.90;1.90;;;14.60;99.90;;;;;;5071561;28;20460;-86
2023/03/12 12:35:15;;;;;;;5.40;1.50;;;13.80;1.00;;;;;;5069997;28;20818;-84
2023/03/12 12:37:51;;;;;;;4.85;1.52;;;13.60;1.00;;;;;;5070499;28;20393;-85
2023/03/12 12:40:37;;;;;;;3.57;1.30;;;13.30;99.90;;;;;;5069830;28;20397;-84
2023/03/12 12:43:28;;;;;;;5.07;1.23;;;13.20;99.90;;;;;;5069731;28;20386;-84
2023/03/12 12:46:09;;;;;;;2.65;1.30;;;13.30;1.00;;;;;;5066846;28;20409;-85
2023/03/12 12:48:42;;;;;;;2.83;1.02;;;13.70;1.00;;;;;;5065811;28;20783;-82
2023/03/12 12:51:10;;;;;;;3.05;1.10;;;13.40;99.90;;;;;;5068354;28;20444;-84
2023/03/12 12:53:40;;;;;;;1.70;1.00;;;14.90;8.10;;;;;;5061807;28;20391;-84
2023/03/12 12:56:17;;;;;;;1.75;0.90;;;13.40;1.00;;;;;;5047636;28;20386;-84
2023/03/12 12:59:15;;;;;;;2.28;1.00;;;13.80;1.00;;;;;;5070988;28;20429;-86
2023/03/12 13:01:42;;;;;;;1.40;0.80;;;13.80;1.00;;;;;;5067725;28;20370;-86
2023/03/12 13:04:16;;;;;;;2.90;1.15;;;13.80;1.00;;;;;;5067650;28;20443;-85
2023/03/12 13:09:15;;;;;;;1.67;0.80;;;14.20;1.00;;;;;;5005249;28;20441;-79
2023/03/12 13:11:45;;;;;;;2.80;1.10;;;14.30;1.00;;;;;;5007061;28;20387;-81